Time;durP1;ratioP1;P1;durP2;ratioP2;P2;SDS_P1;SDS_P2;PMS_P1;PMS_P2;Temp;Humidity;BMP_temperature;BMP_pressure;BME280_temperature;BME280_humidity;BME280_pressure;Samples;Min_cycle;Max_cycle;Signal;HPM_P1;HPM_P2
2023/04/19 00:00:20;;;;;;;28.60;17.60;;;;;;;;;;5066898;28;20049;-61
2023/04/19 00:02:49;;;;;;;27.50;18.70;;;;;;;;;;5068634;28;20076;-60
2023/04/19 00:05:17;;;;;;;27.07;18.77;;;;;;;;;;5068436;28;20581;-60
2023/04/19 00:07:43;;;;;;;25.50;18.57;;;;;;;;;;5055779;28;20055;-60
2023/04/19 00:10:09;;;;;;;28.73;20.17;;;;;;;;;;5049281;28;20499;-60
2023/04/19 00:12:35;;;;;;;28.97;17.47;;;;;;;;;;5067426;28;20041;-60
2023/04/19 00:15:02;;;;;;;27.53;17.60;;;;;;;;;;5068571;28;20044;-60
2023/04/19 00:17:28;;;;;;;30.87;19.43;;;;;;;;;;5065540;28;20033;-60
2023/04/19 00:19:55;;;;;;;28.80;19.10;;;;;;;;;;5051591;28;20053;-60
2023/04/19 00:22:21;;;;;;;29.30;18.50;;;;;;;;;;5052931;28;20045;-60
2023/04/19 00:24:47;;;;;;;30.37;19.90;;;;;;;;;;5051903;28;20056;-60
2023/04/19 00:27:13;;;;;;;29.23;19.20;;;;;;;;;;5051705;28;20071;-60
2023/04/19 00:29:39;;;;;;;27.90;19.07;;;;;;;;;;5066075;28;20624;-60
2023/04/19 00:32:06;;;;;;;29.10;19.23;;;;;;;;;;5052743;28;20117;-61
2023/04/19 00:34:32;;;;;;;32.60;19.17;;;;;;;;;;5051538;28;20458;-60
2023/04/19 00:36:58;;;;;;;36.63;20.80;;;;;;;;;;5052660;28;20041;-60
2023/04/19 00:39:24;;;;;;;25.80;18.30;;;;;;;;;;5050136;28;20049;-60
2023/04/19 00:41:50;;;;;;;26.47;18.03;;;;;;;;;;5051676;28;20592;-60
2023/04/19 00:44:16;;;;;;;27.17;17.10;;;;;;;;;;5051832;28;20053;-60
2023/04/19 00:46:43;;;;;;;27.97;17.93;;;;;;;;;;5050761;28;20056;-60
2023/04/19 00:49:09;;;;;;;26.93;17.13;;;;;;;;;;5051498;28;20049;-60
2023/04/19 00:51:35;;;;;;;23.57;16.67;;;;;;;;;;5052250;28;20049;-60
2023/04/19 00:54:05;;;;;;;25.67;15.93;;;;;;;;;;5051605;28;20080;-60
2023/04/19 00:56:33;;;;;;;26.93;16.47;;;;;;;;;;5050873;28;20124;-60
2023/04/19 00:58:59;;;;;;;25.10;16.17;;;;;;;;;;5067133;28;20045;-60
2023/04/19 01:01:25;;;;;;;25.70;17.07;;;;;;;;;;5071068;28;20052;-60
2023/04/19 01:03:51;;;;;;;24.93;15.83;;;;;;;;;;5070808;28;20051;-60
2023/04/19 01:06:18;;;;;;;23.80;16.80;;;;;;;;;;5071455;28;20048;-59
2023/04/19 01:08:44;;;;;;;22.53;15.20;;;;;;;;;;5064705;28;20064;-60
2023/04/19 01:11:10;;;;;;;21.63;15.30;;;;;;;;;;5052123;28;20407;-60
2023/04/19 01:13:36;;;;;;;25.80;15.73;;;;;;;;;;5067748;28;20037;-60
2023/04/19 01:16:02;;;;;;;18.60;13.47;;;;;;;;;;5051157;28;20048;-60
2023/04/19 01:18:31;;;;;;;21.63;14.47;;;;;;;;;;5050609;28;20037;-60
2023/04/19 01:20:58;;;;;;;21.03;13.87;;;;;;;;;;5051110;28;20037;-60
2023/04/19 01:23:24;;;;;;;21.27;12.67;;;;;;;;;;5050398;28;20053;-60
2023/04/19 01:25:50;;;;;;;18.87;11.70;;;;;;;;;;5050173;28;20074;-60
2023/04/19 01:28:16;;;;;;;18.53;11.83;;;;;;;;;;5050313;28;20475;-60
2023/04/19 01:30:42;;;;;;;18.67;12.77;;;;;;;;;;5050586;28;20138;-60
2023/04/19 01:33:08;;;;;;;22.33;12.30;;;;;;;;;;5050954;28;20103;-60
2023/04/19 01:35:34;;;;;;;21.73;11.60;;;;;;;;;;5050023;28;20053;-60
2023/04/19 01:38:00;;;;;;;21.20;11.73;;;;;;;;;;5050763;28;20825;-60
2023/04/19 01:40:27;;;;;;;15.13;11.30;;;;;;;;;;5050378;28;20048;-60
2023/04/19 01:42:53;;;;;;;21.90;12.07;;;;;;;;;;5053152;28;20067;-60
2023/04/19 01:45:19;;;;;;;16.50;10.00;;;;;;;;;;5070184;28;20584;-60
2023/04/19 01:47:45;;;;;;;16.70;10.93;;;;;;;;;;5059516;28;20037;-60
2023/04/19 01:50:11;;;;;;;16.13;10.30;;;;;;;;;;5051240;28;20084;-60
2023/04/19 01:52:37;;;;;;;17.10;11.13;;;;;;;;;;5070263;28;20509;-60
2023/04/19 01:55:03;;;;;;;16.93;10.40;;;;;;;;;;5070185;28;20048;-60
2023/04/19 01:57:29;;;;;;;19.70;10.73;;;;;;;;;;5058772;28;20045;-61
2023/04/19 01:59:55;;;;;;;12.50;8.80;;;;;;;;;;5052563;28;20066;-60
2023/04/19 02:02:21;;;;;;;15.37;9.30;;;;;;;;;;5070093;28;20119;-60
2023/04/19 02:04:47;;;;;;;15.97;10.27;;;;;;;;;;5070055;28;20479;-60
2023/04/19 02:07:13;;;;;;;16.57;9.70;;;;;;;;;;5069919;28;20055;-61
2023/04/19 02:09:39;;;;;;;12.90;9.57;;;;;;;;;;5070096;28;20135;-61
2023/04/19 02:12:05;;;;;;;11.93;8.77;;;;;;;;;;5070213;28;20110;-62
2023/04/19 02:14:31;;;;;;;15.40;8.97;;;;;;;;;;5070123;28;20080;-61
2023/04/19 02:16:57;;;;;;;13.03;8.93;;;;;;;;;;5070098;28;20051;-61
2023/04/19 02:19:23;;;;;;;13.20;8.70;;;;;;;;;;5069146;28;20051;-62
2023/04/19 02:21:50;;;;;;;13.20;8.20;;;;;;;;;;5068702;28;20044;-60
2023/04/19 02:24:16;;;;;;;13.63;8.80;;;;;;;;;;5069486;28;20080;-59
2023/04/19 02:26:42;;;;;;;13.73;8.67;;;;;;;;;;5068930;28;20084;-60
2023/04/19 02:29:08;;;;;;;13.10;7.53;;;;;;;;;;5069712;28;20147;-60
2023/04/19 02:31:35;;;;;;;14.70;8.83;;;;;;;;;;5069654;28;20048;-60
2023/04/19 02:34:01;;;;;;;13.00;8.17;;;;;;;;;;5069157;28;20044;-60
2023/04/19 02:36:27;;;;;;;14.53;8.60;;;;;;;;;;5069420;28;20044;-60
2023/04/19 02:38:53;;;;;;;12.80;8.47;;;;;;;;;;5069296;28;20040;-60
2023/04/19 02:41:19;;;;;;;12.50;8.43;;;;;;;;;;5067940;28;20152;-60
2023/04/19 02:43:45;;;;;;;12.43;8.70;;;;;;;;;;5069054;28;20080;-61
2023/04/19 02:46:11;;;;;;;16.37;8.60;;;;;;;;;;5069035;28;20064;-60
2023/04/19 02:48:38;;;;;;;14.77;9.07;;;;;;;;;;5068588;28;20090;-60
2023/04/19 02:51:04;;;;;;;14.40;9.07;;;;;;;;;;5061313;28;20415;-60
2023/04/19 02:53:30;;;;;;;16.87;8.70;;;;;;;;;;5048897;28;20056;-60
2023/04/19 02:55:56;;;;;;;16.97;8.67;;;;;;;;;;5049152;28;20044;-60
2023/04/19 02:58:22;;;;;;;12.97;8.03;;;;;;;;;;5049028;28;20044;-60
2023/04/19 03:00:48;;;;;;;16.67;8.37;;;;;;;;;;5048865;28;20048;-60
2023/04/19 03:03:14;;;;;;;9.87;7.67;;;;;;;;;;5049223;28;20041;-60
2023/04/19 03:05:40;;;;;;;13.43;7.67;;;;;;;;;;5048719;28;20037;-60
2023/04/19 03:08:06;;;;;;;15.27;8.13;;;;;;;;;;5048612;28;20067;-60
2023/04/19 03:10:32;;;;;;;13.13;7.50;;;;;;;;;;5049157;28;20045;-60
2023/04/19 03:12:58;;;;;;;15.93;8.33;;;;;;;;;;5048830;28;20373;-60
2023/04/19 03:15:24;;;;;;;14.20;7.73;;;;;;;;;;5048972;28;20048;-60
2023/04/19 03:17:50;;;;;;;16.07;8.43;;;;;;;;;;5065303;28;20043;-60
2023/04/19 03:20:17;;;;;;;12.73;7.83;;;;;;;;;;5067742;28;20056;-60
2023/04/19 03:22:43;;;;;;;12.63;7.73;;;;;;;;;;5053737;28;20050;-60
2023/04/19 03:25:11;;;;;;;12.07;7.73;;;;;;;;;;5068691;28;20048;-60
2023/04/19 03:27:37;;;;;;;13.40;8.60;;;;;;;;;;5068703;28;20048;-60
2023/04/19 03:30:03;;;;;;;15.43;8.37;;;;;;;;;;5068560;28;20164;-59
2023/04/19 03:32:30;;;;;;;11.50;8.93;;;;;;;;;;5068737;28;20040;-59
2023/04/19 03:34:56;;;;;;;13.40;9.27;;;;;;;;;;5066368;28;20036;-60
2023/04/19 03:37:22;;;;;;;14.03;9.30;;;;;;;;;;5068482;28;20051;-60
2023/04/19 03:39:48;;;;;;;14.17;9.10;;;;;;;;;;5068229;28;20045;-60
2023/04/19 03:42:14;;;;;;;13.17;9.60;;;;;;;;;;5068883;28;20143;-60
2023/04/19 03:44:40;;;;;;;15.40;10.10;;;;;;;;;;5068715;28;20042;-60
2023/04/19 03:47:06;;;;;;;17.13;9.87;;;;;;;;;;5063245;28;20045;-60
2023/04/19 03:49:32;;;;;;;16.97;10.80;;;;;;;;;;5057189;28;20072;-59
2023/04/19 03:51:58;;;;;;;16.33;10.13;;;;;;;;;;5065418;28;20093;-60
2023/04/19 03:54:25;;;;;;;17.50;9.67;;;;;;;;;;5072458;28;20090;-59
2023/04/19 03:56:51;;;;;;;16.57;10.03;;;;;;;;;;5071497;28;20080;-60
2023/04/19 03:59:17;;;;;;;15.90;10.07;;;;;;;;;;5072733;28;20068;-60
2023/04/19 04:01:43;;;;;;;21.60;12.17;;;;;;;;;;5061537;28;20590;-60
2023/04/19 04:04:09;;;;;;;19.50;11.30;;;;;;;;;;5052380;28;20047;-60
2023/04/19 04:06:35;;;;;;;18.23;11.80;;;;;;;;;;5052185;28;20052;-60
2023/04/19 04:09:01;;;;;;;19.17;12.97;;;;;;;;;;5052617;28;20167;-60
2023/04/19 04:11:27;;;;;;;16.00;10.57;;;;;;;;;;5052328;28;20490;-60
2023/04/19 04:13:53;;;;;;;18.27;11.23;;;;;;;;;;5052278;28;20551;-60
2023/04/19 04:16:19;;;;;;;17.67;11.47;;;;;;;;;;5052299;28;20114;-60
2023/04/19 04:18:45;;;;;;;16.97;10.63;;;;;;;;;;5052365;28;20041;-60
2023/04/19 04:21:11;;;;;;;16.83;11.90;;;;;;;;;;5051812;28;20045;-60
2023/04/19 04:23:37;;;;;;;16.43;10.40;;;;;;;;;;5052308;28;20041;-60
2023/04/19 04:26:05;;;;;;;14.93;10.40;;;;;;;;;;5051927;28;20045;-60
2023/04/19 04:28:32;;;;;;;20.93;11.47;;;;;;;;;;5051828;28;20562;-60
2023/04/19 04:30:59;;;;;;;19.37;11.10;;;;;;;;;;5054746;28;20055;-60
2023/04/19 04:33:25;;;;;;;18.13;10.20;;;;;;;;;;5052148;28;20095;-60
2023/04/19 04:35:52;;;;;;;18.87;10.03;;;;;;;;;;5051784;28;20045;-60
2023/04/19 04:38:18;;;;;;;16.83;9.87;;;;;;;;;;5051206;28;20068;-60
2023/04/19 04:40:48;;;;;;;19.17;11.57;;;;;;;;;;5051360;28;20091;-60
2023/04/19 04:43:14;;;;;;;22.00;10.87;;;;;;;;;;5051273;28;20094;-60
2023/04/19 04:45:43;;;;;;;16.13;9.80;;;;;;;;;;5051459;28;20045;-60
2023/04/19 04:48:09;;;;;;;17.13;10.07;;;;;;;;;;5051501;28;20087;-60
2023/04/19 04:50:35;;;;;;;17.33;10.43;;;;;;;;;;5058433;28;20136;-60
2023/04/19 04:53:01;;;;;;;15.97;8.60;;;;;;;;;;5071153;28;20055;-60
2023/04/19 04:55:27;;;;;;;16.37;9.20;;;;;;;;;;5071182;28;20542;-60
2023/04/19 04:57:53;;;;;;;18.70;9.17;;;;;;;;;;5070975;28;20127;-60
2023/04/19 05:00:20;;;;;;;16.37;8.63;;;;;;;;;;5068770;28;20131;-60
2023/04/19 05:02:46;;;;;;;13.83;8.40;;;;;;;;;;5055678;28;20166;-60
2023/04/19 05:05:12;;;;;;;19.80;10.30;;;;;;;;;;5059489;28;20124;-60
2023/04/19 05:07:38;;;;;;;19.67;9.47;;;;;;;;;;5059754;28;20107;-60
2023/04/19 05:10:04;;;;;;;13.90;8.23;;;;;;;;;;5058932;28;20074;-60
2023/04/19 05:12:30;;;;;;;15.97;8.93;;;;;;;;;;5058147;28;20072;-60
2023/04/19 05:14:56;;;;;;;12.77;8.57;;;;;;;;;;5058576;28;20786;-60
2023/04/19 05:17:22;;;;;;;14.20;8.33;;;;;;;;;;5060749;28;20040;-60
2023/04/19 05:19:48;;;;;;;11.60;8.13;;;;;;;;;;5059166;28;20056;-60
2023/04/19 05:22:15;;;;;;;16.00;9.10;;;;;;;;;;5061648;28;20037;-61
2023/04/19 05:24:41;;;;;;;11.67;7.50;;;;;;;;;;5059215;28;20049;-61
2023/04/19 05:27:08;;;;;;;12.70;7.77;;;;;;;;;;5062544;28;20114;-61
2023/04/19 05:29:34;;;;;;;15.13;8.93;;;;;;;;;;5058517;28;20079;-61
2023/04/19 05:32:00;;;;;;;12.93;8.90;;;;;;;;;;5058894;28;20411;-61
2023/04/19 05:34:26;;;;;;;12.70;8.67;;;;;;;;;;5058301;28;20044;-62
2023/04/19 05:36:52;;;;;;;12.63;8.47;;;;;;;;;;5061796;28;20056;-61
2023/04/19 05:39:18;;;;;;;15.43;8.53;;;;;;;;;;5059975;28;20033;-60
2023/04/19 05:41:44;;;;;;;16.43;8.53;;;;;;;;;;5057343;28;20080;-61
2023/04/19 05:44:10;;;;;;;12.43;7.70;;;;;;;;;;5056360;28;20716;-60
2023/04/19 05:46:36;;;;;;;14.00;8.43;;;;;;;;;;5057250;28;20041;-61
2023/04/19 05:49:02;;;;;;;11.53;7.27;;;;;;;;;;5051638;28;20048;-60
2023/04/19 05:51:28;;;;;;;13.57;7.20;;;;;;;;;;5050395;28;20090;-61
2023/04/19 05:53:54;;;;;;;21.53;8.70;;;;;;;;;;5050242;28;20127;-60
2023/04/19 05:56:20;;;;;;;11.57;7.93;;;;;;;;;;5050307;28;20561;-61
2023/04/19 05:58:46;;;;;;;11.57;7.23;;;;;;;;;;5050025;28;20044;-61
2023/04/19 06:01:13;;;;;;;11.80;7.30;;;;;;;;;;5049925;28;20056;-61
2023/04/19 06:03:39;;;;;;;11.80;7.23;;;;;;;;;;5050145;28;20496;-61
2023/04/19 06:06:05;;;;;;;13.47;7.73;;;;;;;;;;5065602;28;20051;-61
2023/04/19 06:08:31;;;;;;;11.50;6.97;;;;;;;;;;5069901;28;20052;-61
2023/04/19 06:10:57;;;;;;;11.13;6.97;;;;;;;;;;5069059;28;20146;-61
2023/04/19 06:13:23;;;;;;;9.23;5.83;;;;;;;;;;5068765;28;20086;-60
2023/04/19 06:15:49;;;;;;;9.90;6.10;;;;;;;;;;5067790;28;20050;-61
2023/04/19 06:18:15;;;;;;;10.73;6.07;;;;;;;;;;5067482;28;20067;-62
2023/04/19 06:20:41;;;;;;;9.53;5.27;;;;;;;;;;5060367;28;20040;-62
2023/04/19 06:23:07;;;;;;;9.97;5.60;;;;;;;;;;5048846;28;20654;-61
2023/04/19 06:25:33;;;;;;;10.33;6.07;;;;;;;;;;5048957;28;20053;-61
2023/04/19 06:27:59;;;;;;;9.43;5.20;;;;;;;;;;5047502;28;20145;-61
2023/04/19 06:30:25;;;;;;;8.77;4.80;;;;;;;;;;5065133;28;20135;-59
2023/04/19 06:32:51;;;;;;;7.90;5.00;;;;;;;;;;5067030;28;20410;-59
2023/04/19 06:35:17;;;;;;;9.73;4.70;;;;;;;;;;5066423;28;20041;-60
2023/04/19 06:37:43;;;;;;;10.83;5.43;;;;;;;;;;5066997;28;20044;-60
2023/04/19 06:40:10;;;;;;;10.23;4.90;;;;;;;;;;5066966;28;20048;-60
2023/04/19 06:42:36;;;;;;;11.10;4.13;;;;;;;;;;5066966;28;20080;-60
2023/04/19 06:45:02;;;;;;;7.67;4.00;;;;;;;;;;5067964;28;20048;-60
2023/04/19 06:47:29;;;;;;;13.53;5.40;;;;;;;;;;5066980;28;20098;-60
2023/04/19 06:49:55;;;;;;;8.60;4.53;;;;;;;;;;5067095;28;20072;-60
2023/04/19 06:52:21;;;;;;;12.73;4.30;;;;;;;;;;5063954;28;20048;-60
2023/04/19 06:54:48;;;;;;;7.03;3.50;;;;;;;;;;5052965;28;20052;-60
2023/04/19 06:57:14;;;;;;;7.87;4.30;;;;;;;;;;5055121;28;20774;-60
2023/04/19 06:59:40;;;;;;;7.43;3.80;;;;;;;;;;5077217;28;20105;-60
2023/04/19 07:02:06;;;;;;;12.13;3.70;;;;;;;;;;5071782;28;20456;-61
2023/04/19 07:04:32;;;;;;;6.80;3.70;;;;;;;;;;5066706;28;20071;-61
2023/04/19 07:06:59;;;;;;;11.43;5.17;;;;;;;;;;5055929;28;20136;-61
2023/04/19 07:09:25;;;;;;;6.10;3.70;;;;;;;;;;5054127;28;20037;-60
2023/04/19 07:11:51;;;;;;;7.97;3.40;;;;;;;;;;5051144;28;20052;-60
2023/04/19 07:14:18;;;;;;;8.87;3.10;;;;;;;;;;5055683;28;20044;-60
2023/04/19 07:16:45;;;;;;;6.40;3.50;;;;;;;;;;5055902;28;20079;-61
2023/04/19 07:19:11;;;;;;;6.73;3.47;;;;;;;;;;5056077;28;20131;-60
2023/04/19 07:21:38;;;;;;;5.03;3.27;;;;;;;;;;5057593;28;20055;-60
2023/04/19 07:24:05;;;;;;;9.07;3.47;;;;;;;;;;5053799;28;20048;-60
2023/04/19 07:26:31;;;;;;;6.27;2.77;;;;;;;;;;5055148;28;20530;-60
2023/04/19 07:28:57;;;;;;;7.67;3.00;;;;;;;;;;5057449;28;20206;-60
2023/04/19 07:31:26;;;;;;;4.33;2.50;;;;;;;;;;5053526;28;20048;-60
2023/04/19 07:33:53;;;;;;;5.23;2.47;;;;;;;;;;5054483;28;20044;-60
2023/04/19 07:36:19;;;;;;;4.57;2.40;;;;;;;;;;5052504;28;20037;-61
2023/04/19 07:38:45;;;;;;;7.10;2.60;;;;;;;;;;5055074;28;20526;-61
2023/04/19 07:41:11;;;;;;;4.70;2.43;;;;;;;;;;5058487;28;20048;-62
2023/04/19 07:43:37;;;;;;;8.00;2.50;;;;;;;;;;5056530;28;20045;-60
2023/04/19 07:46:10;;;;;;;4.30;2.20;;;;;;;;;;5054214;28;20049;-61
2023/04/19 07:48:37;;;;;;;3.92;2.15;;;;;;;;;;5056741;28;20525;-61
2023/04/19 07:51:12;;;;;;;3.53;1.93;;;;;;;;;;5057198;28;20044;-61
2023/04/19 07:53:39;;;;;;;4.83;1.90;;;;;;;;;;5056357;28;20052;-61
2023/04/19 07:56:08;;;;;;;10.83;2.10;;;;;;;;;;5056142;28;20510;-61
2023/04/19 07:58:40;;;;;;;4.73;2.00;;;;;;;;;;5052770;28;20538;-61
2023/04/19 08:01:06;;;;;;;3.70;2.00;;;;;;;;;;5053870;28;20063;-61
2023/04/19 08:03:36;;;;;;;6.33;1.87;;;;;;;;;;5054924;28;20045;-61
2023/04/19 08:06:04;;;;;;;4.13;1.87;;;;;;;;;;5054598;28;20467;-61
2023/04/19 08:08:30;;;;;;;3.90;1.80;;;;;;;;;;5054070;28;20049;-61
2023/04/19 08:10:56;;;;;;;3.77;1.93;;;;;;;;;;5052491;28;20090;-61
2023/04/19 08:13:22;;;;;;;4.53;1.80;;;;;;;;;;5053420;28;20522;-62
2023/04/19 08:15:48;;;;;;;3.07;1.60;;;;;;;;;;5055814;28;20138;-62
2023/04/19 08:18:14;;;;;;;3.90;1.90;;;;;;;;;;5055922;28;21071;-61
2023/04/19 08:20:45;;;;;;;6.00;1.70;;;;;;;;;;5055473;28;20048;-61
2023/04/19 08:23:11;;;;;;;3.57;1.93;;;;;;;;;;5053050;28;20562;-59
2023/04/19 08:25:37;;;;;;;3.13;1.73;;;;;;;;;;5055771;28;20059;-60
2023/04/19 08:28:04;;;;;;;2.50;1.57;;;;;;;;;;5056436;28;20051;-61
2023/04/19 08:30:30;;;;;;;5.03;1.93;;;;;;;;;;5055279;28;20056;-61
2023/04/19 08:32:56;;;;;;;4.33;1.50;;;;;;;;;;5060107;28;20036;-60
2023/04/19 08:35:23;;;;;;;5.80;2.17;;;;;;;;;;5055877;28;20064;-61
2023/04/19 08:37:50;;;;;;;4.63;1.90;;;;;;;;;;5047556;28;20058;-60
2023/04/19 08:40:16;;;;;;;3.87;1.53;;;;;;;;;;5050580;28;20055;-60
2023/04/19 08:42:43;;;;;;;3.23;1.90;;;;;;;;;;5065415;28;20041;-61
2023/04/19 08:45:12;;;;;;;6.03;2.17;;;;;;;;;;5070597;28;20047;-59
2023/04/19 08:47:38;;;;;;;4.63;2.27;;;;;;;;;;5056544;28;20052;-59
2023/04/19 08:50:05;;;;;;;5.00;2.37;;;;;;;;;;5069403;28;20052;-59
2023/04/19 08:52:33;;;;;;;6.80;2.47;;;;;;;;;;5061194;28;20053;-60
2023/04/19 08:55:01;;;;;;;3.57;2.10;;;;;;;;;;5047624;28;20045;-60
2023/04/19 08:57:29;;;;;;;7.40;2.57;;;;;;;;;;5047699;28;20048;-60
2023/04/19 08:59:56;;;;;;;5.23;2.37;;;;;;;;;;5063233;28;20048;-61
2023/04/19 09:02:22;;;;;;;5.67;2.50;;;;;;;;;;5069319;28;20056;-61
2023/04/19 09:04:49;;;;;;;4.60;2.20;;;;;;;;;;5060400;28;20036;-61
2023/04/19 09:07:27;;;;;;;3.80;2.40;;;;;;;;;;5069201;28;20417;-61
2023/04/19 09:10:05;;;;;;;7.03;2.30;;;;;;;;;;5059007;28;20048;-61
2023/04/19 09:12:31;;;;;;;4.30;2.30;;;;;;;;;;5050399;28;20398;-61
2023/04/19 09:14:57;;;;;;;6.27;2.63;;;;;;;;;;5050377;28;20045;-61
2023/04/19 09:17:23;;;;;;;6.17;2.23;;;;;;;;;;5049625;28;20049;-61
2023/04/19 09:19:49;;;;;;;4.50;2.47;;;;;;;;;;5049780;28;20048;-61
2023/04/19 09:22:16;;;;;;;11.20;2.60;;;;;;;;;;5049946;28;20083;-61
2023/04/19 09:24:42;;;;;;;4.50;1.93;;;;;;;;;;5050050;28;20045;-61
2023/04/19 09:27:10;;;;;;;3.57;2.20;;;;;;;;;;5062528;28;20045;-61
2023/04/19 09:29:37;;;;;;;6.57;2.17;;;;;;;;;;5069934;28;20053;-61
2023/04/19 09:32:04;;;;;;;6.33;2.33;;;;;;;;;;5069576;28;20111;-61
2023/04/19 09:34:31;;;;;;;4.83;2.07;;;;;;;;;;5069486;28;20538;-61
2023/04/19 09:36:57;;;;;;;6.77;2.73;;;;;;;;;;5065557;28;20041;-61
2023/04/19 09:39:30;;;;;;;6.40;2.50;;;;;;;;;;5056476;28;20048;-61
2023/04/19 09:41:57;;;;;;;6.07;2.47;;;;;;;;;;5067695;28;20563;-61
2023/04/19 09:44:23;;;;;;;4.77;1.77;;;;;;;;;;5061563;28;20769;-61
2023/04/19 09:46:51;;;;;;;5.70;1.90;;;;;;;;;;5063410;28;20088;-61
2023/04/19 09:49:25;;;;;;;9.50;2.50;;;;;;;;;;5063164;28;20040;-62
2023/04/19 09:51:52;;;;;;;5.60;2.00;;;;;;;;;;5064170;28;20052;-62
2023/04/19 09:54:19;;;;;;;4.97;2.00;;;;;;;;;;5067567;28;20041;-62
2023/04/19 09:56:46;;;;;;;4.77;3.00;;;;;;;;;;5068313;28;20526;-61
2023/04/19 09:59:12;;;;;;;6.97;2.03;;;;;;;;;;5068606;28;20045;-61
2023/04/19 10:01:41;;;;;;;3.00;1.93;;;;;;;;;;5063870;28;20049;-61
2023/04/19 10:04:09;;;;;;;5.13;1.90;;;;;;;;;;5067323;28;20048;-62
2023/04/19 10:06:35;;;;;;;3.70;2.10;;;;;;;;;;5068575;28;20056;-61
2023/04/19 10:09:03;;;;;;;5.90;1.90;;;;;;;;;;5072222;28;20069;-62
2023/04/19 10:11:37;;;;;;;3.93;1.70;;;;;;;;;;5071667;28;20045;-61
2023/04/19 10:14:04;;;;;;;6.33;1.87;;;;;;;;;;5067874;28;20116;-62
2023/04/19 10:16:30;;;;;;;4.77;2.07;;;;;;;;;;5067972;28;20789;-61
2023/04/19 10:18:56;;;;;;;6.17;2.03;;;;;;;;;;5049729;28;20148;-62
2023/04/19 10:21:23;;;;;;;4.07;2.00;;;;;;;;;;5066217;28;20044;-62
2023/04/19 10:23:49;;;;;;;6.30;2.00;;;;;;;;;;5067105;28;20052;-61
2023/04/19 10:26:15;;;;;;;3.83;1.70;;;;;;;;;;5056020;28;20089;-62
2023/04/19 10:28:42;;;;;;;3.03;1.50;;;;;;;;;;5046543;28;20048;-61
2023/04/19 10:31:11;;;;;;;3.67;1.80;;;;;;;;;;5047144;28;20401;-61
2023/04/19 10:33:37;;;;;;;4.90;1.90;;;;;;;;;;5048630;28;20057;-61
2023/04/19 10:36:04;;;;;;;3.57;1.80;;;;;;;;;;5060390;28;20056;-61
2023/04/19 10:38:37;;;;;;;7.97;1.90;;;;;;;;;;5067424;28;20074;-61
2023/04/19 10:41:04;;;;;;;2.38;1.38;;;;;;;;;;5050756;28;20048;-62
2023/04/19 10:43:32;;;;;;;3.60;1.50;;;;;;;;;;5057055;28;20045;-62
2023/04/19 10:46:00;;;;;;;5.63;1.50;;;;;;;;;;5054966;28;20041;-61
2023/04/19 10:48:29;;;;;;;4.67;1.80;;;;;;;;;;5051243;28;20048;-62
2023/04/19 10:51:13;;;;;;;11.63;1.70;;;;;;;;;;5052441;28;20056;-60
2023/04/19 10:53:52;;;;;;;3.27;1.30;;;;;;;;;;5056924;28;20052;-61
2023/04/19 10:56:42;;;;;;;4.13;1.63;;;;;;;;;;5054516;28;20048;-62
2023/04/19 10:59:12;;;;;;;3.60;1.60;;;;;;;;;;5036534;28;20055;-62
2023/04/19 11:01:39;;;;;;;4.03;1.60;;;;;;;;;;5055698;28;20127;-61
2023/04/19 11:04:15;;;;;;;5.27;1.63;;;;;;;;;;5054173;28;20163;-61
2023/04/19 11:06:51;;;;;;;3.33;1.70;;;;;;;;;;5051326;28;20056;-60
2023/04/19 11:09:23;;;;;;;3.57;1.30;;;;;;;;;;5055129;28;20436;-60
2023/04/19 11:11:49;;;;;;;2.20;1.10;;;;;;;;;;5055111;28;20044;-60
2023/04/19 11:14:15;;;;;;;4.10;1.77;;;;;;;;;;5054704;28;20040;-60
2023/04/19 11:16:41;;;;;;;3.20;1.17;;;;;;;;;;5054900;28;20044;-61
2023/04/19 11:19:07;;;;;;;5.37;1.60;;;;;;;;;;5052219;28;20045;-61
2023/04/19 11:21:38;;;;;;;4.40;1.87;;;;;;;;;;5061761;28;20059;-61
2023/04/19 11:24:11;;;;;;;6.10;1.53;;;;;;;;;;5052299;28;20056;-61
2023/04/19 11:26:37;;;;;;;3.65;1.67;;;;;;;;;;5055589;28;20048;-61
2023/04/19 11:29:05;;;;;;;4.10;1.80;;;;;;;;;;5058996;28;20063;-60
2023/04/19 11:31:33;;;;;;;3.63;1.77;;;;;;;;;;5057427;28;20044;-60
2023/04/19 11:34:00;;;;;;;5.23;1.90;;;;;;;;;;5052206;28;20138;-61
2023/04/19 11:36:26;;;;;;;3.77;1.67;;;;;;;;;;5058285;28;20474;-61
2023/04/19 11:38:52;;;;;;;4.50;1.90;;;;;;;;;;5057687;28;20407;-61
2023/04/19 11:41:19;;;;;;;3.53;1.67;;;;;;;;;;5056298;28;20699;-61
2023/04/19 11:43:45;;;;;;;3.07;1.70;;;;;;;;;;5056202;28;20047;-60
2023/04/19 11:46:12;;;;;;;2.63;1.50;;;;;;;;;;5056113;28;20052;-61
2023/04/19 11:48:39;;;;;;;3.53;1.33;;;;;;;;;;5052624;28;20056;-61
2023/04/19 11:51:05;;;;;;;5.70;2.07;;;;;;;;;;5053762;28;20052;-61
2023/04/19 11:53:32;;;;;;;3.90;1.97;;;;;;;;;;5057863;28;20097;-61
2023/04/19 11:55:58;;;;;;;2.70;1.60;;;;;;;;;;5052240;28;20033;-61
2023/04/19 11:58:24;;;;;;;4.10;1.50;;;;;;;;;;5053204;28;20102;-61
2023/04/19 12:00:51;;;;;;;2.37;1.43;;;;;;;;;;5059977;28;20127;-61
2023/04/19 12:03:20;;;;;;;4.60;1.77;;;;;;;;;;5056565;28;20132;-62
2023/04/19 12:05:56;;;;;;;2.57;1.73;;;;;;;;;;5053093;28;20044;-60
2023/04/19 12:08:35;;;;;;;3.15;1.80;;;;;;;;;;5054583;28;20060;-61
2023/04/19 12:11:02;;;;;;;2.40;1.60;;;;;;;;;;5060071;28;20445;-61
2023/04/19 12:13:30;;;;;;;2.78;1.58;;;;;;;;;;5058849;28;20727;-61
2023/04/19 12:15:56;;;;;;;3.50;1.70;;;;;;;;;;5062973;28;20554;-61
2023/04/19 12:18:23;;;;;;;6.50;2.03;;;;;;;;;;5060449;28;20044;-61
2023/04/19 12:20:50;;;;;;;3.70;2.10;;;;;;;;;;5065504;28;20037;-60
2023/04/19 12:23:16;;;;;;;2.85;1.95;;;;;;;;;;5062216;28;20495;-61
2023/04/19 12:25:44;;;;;;;2.90;1.70;;;;;;;;;;5060291;28;20127;-61
2023/04/19 12:28:10;;;;;;;3.83;1.90;;;;;;;;;;5059265;28;20561;-61
2023/04/19 12:30:36;;;;;;;3.80;2.10;;;;;;;;;;5057375;28;20052;-61
2023/04/19 12:33:02;;;;;;;7.68;2.88;;;;;;;;;;5060672;28;20045;-61
2023/04/19 12:35:28;;;;;;;2.92;2.17;;;;;;;;;;5058870;28;20517;-61
2023/04/19 12:37:55;;;;;;;3.33;1.60;;;;;;;;;;5058758;28;20044;-61
2023/04/19 12:40:22;;;;;;;6.32;2.30;;;;;;;;;;5058175;28;20080;-61
2023/04/19 12:42:48;;;;;;;4.22;2.17;;;;;;;;;;5060218;28;20045;-61
2023/04/19 12:45:14;;;;;;;4.82;2.10;;;;;;;;;;5053474;28;20061;-61
2023/04/19 12:47:41;;;;;;;3.78;2.30;;;;;;;;;;5050740;28;20041;-61
2023/04/19 12:50:07;;;;;;;3.08;2.00;;;;;;;;;;5067243;28;20051;-61
2023/04/19 12:52:33;;;;;;;4.10;2.53;;;;;;;;;;5070331;28;20057;-61
2023/04/19 12:54:59;;;;;;;4.97;2.50;;;;;;;;;;5071314;28;20178;-61
2023/04/19 12:57:25;;;;;;;4.63;2.38;;;;;;;;;;5065254;28;20506;-61
2023/04/19 12:59:51;;;;;;;5.45;2.45;;;;;;;;;;5051083;28;20454;-61
2023/04/19 13:02:18;;;;;;;4.68;2.67;;;;;;;;;;5054668;28;20073;-61
2023/04/19 13:04:44;;;;;;;4.65;2.90;;;;;;;;;;5069949;28;20105;-61
2023/04/19 13:07:10;;;;;;;3.33;2.20;;;;;;;;;;5057113;28;20499;-61
2023/04/19 13:09:36;;;;;;;5.18;2.22;;;;;;;;;;5066308;28;20041;-61
2023/04/19 13:12:02;;;;;;;3.25;2.58;;;;;;;;;;5071188;28;20608;-61
2023/04/19 13:14:28;;;;;;;3.90;2.30;;;;;;;;;;5055669;28;20072;-61
2023/04/19 13:16:54;;;;;;;5.45;2.83;;;;;;;;;;5053169;28;20037;-61
2023/04/19 13:19:20;;;;;;;6.90;2.38;;;;;;;;;;5065687;28;20040;-61
2023/04/19 13:21:46;;;;;;;4.95;2.35;;;;;;;;;;5069266;28;20592;-61
2023/04/19 13:24:12;;;;;;;3.97;2.33;;;;;;;;;;5058822;28;20050;-61
2023/04/19 13:26:39;;;;;;;7.85;2.28;;;;;;;;;;5061045;28;20040;-61
2023/04/19 13:29:07;;;;;;;5.28;2.45;;;;;;;;;;5053771;28;20064;-62
2023/04/19 13:31:33;;;;;;;4.50;2.55;;;;;;;;;;5057176;28;20083;-61
2023/04/19 13:33:59;;;;;;;5.05;2.65;;;;;;;;;;5058985;28;20082;-62
2023/04/19 13:36:29;;;;;;;7.03;2.70;;;;;;;;;;5059878;28;20049;-61
2023/04/19 13:38:56;;;;;;;4.20;2.40;;;;;;;;;;5058137;28;20048;-62
2023/04/19 13:41:22;;;;;;;6.57;2.70;;;;;;;;;;5069030;28;20090;-61
2023/04/19 13:43:48;;;;;;;4.65;2.40;;;;;;;;;;5068833;28;20125;-61
2023/04/19 13:46:14;;;;;;;4.20;2.30;;;;;;;;;;5070080;28;20423;-61
2023/04/19 13:48:40;;;;;;;3.63;2.50;;;;;;;;;;5067804;28;20052;-62
2023/04/19 13:51:06;;;;;;;4.07;2.97;;;;;;;;;;5065497;28;20163;-61
2023/04/19 13:53:32;;;;;;;5.68;2.50;;;;;;;;;;5058653;28;20450;-61
2023/04/19 13:55:58;;;;;;;3.60;2.53;;;;;;;;;;5053842;28;20380;-61
2023/04/19 13:58:24;;;;;;;3.85;2.33;;;;;;;;;;5059512;28;20082;-62
2023/04/19 14:00:51;;;;;;;4.32;2.25;;;;;;;;;;5058724;28;20053;-62
2023/04/19 14:03:17;;;;;;;5.30;2.00;;;;;;;;;;5060122;28;20041;-61
2023/04/19 14:05:43;;;;;;;4.55;2.20;;;;;;;;;;5059524;28;20120;-61
2023/04/19 14:08:09;;;;;;;4.38;2.30;;;;;;;;;;5058414;28;20183;-62
2023/04/19 14:10:35;;;;;;;5.40;2.20;;;;;;;;;;5059371;28;20049;-62
2023/04/19 14:13:02;;;;;;;3.95;2.50;;;;;;;;;;5055664;28;20041;-61
2023/04/19 14:15:28;;;;;;;3.65;2.10;;;;;;;;;;5058274;28;20166;-62
2023/04/19 14:17:54;;;;;;;3.08;2.03;;;;;;;;;;5058566;28;20045;-61
2023/04/19 14:20:20;;;;;;;3.17;2.00;;;;;;;;;;5059043;28;20033;-62
2023/04/19 14:22:46;;;;;;;3.03;2.05;;;;;;;;;;5057343;28;20044;-62
2023/04/19 14:25:17;;;;;;;5.18;2.00;;;;;;;;;;5056287;28;20414;-61
2023/04/19 14:27:43;;;;;;;3.38;1.70;;;;;;;;;;5055928;28;20799;-62
2023/04/19 14:30:11;;;;;;;3.90;2.38;;;;;;;;;;5058502;28;20421;-61